Aérodrome :
LOGIN :

S'inscrire | Disclaimer

   EN    FR    IT 

 










Légende :    VFR   VFR Marginal   IFR   IFR Intensif   IFR Très Intensif
Visi : 
Plafond : 
>= 8 km
>= 3000ft
5 à 8 km
1000 à 3000 ft
1500m à 5 km
500 à 1000 ft
800 à 1500m
200 à 500 ft
< 800m
< 200 ft
Symboles :   Orages  Brouillard  Fortes neiges  Fortes précipitations  Vent > 20 kt
SIGMETs :   Divers  Orages  Givrage  Turbulence  Onde Orograph.  Cendres Volcan.






- Altitude de l'aérodrome : 52 ft
- Code IATA : IOM


EGNS - Isle of Man

DERNIER METAR :
  • 100620Z 05009KT 8000 NSC 09/07 Q1023 NOSIG

METARs EXPIRÉS :
  • 100550Z 05009KT 8000 NSC 09/07 Q1023 NOSIG
  • 100520Z 06009KT 8000 NSC 09/07 Q1023 NOSIG
  • 100450Z 06008KT 8000 NSC 09/07 Q1023 NOSIG
  • 100420Z 05009KT 8000 NSC 09/07 Q1023 NOSIG
  • 100350Z 05007KT 9000 NSC 09/07 Q1024

TAF TAF EGNS
Valide du 10 à 06h jusqu'au 10 à 09h UTC


100500Z 1006/1009 08010KT 8000 NSC
TEMPO 1006/1009 9999



MET'MAP, la Météo Aéronautique d'un coup d'oeil ! - Copyright ORBIFLY Décembre 2007 - Disclaimer

ORBIFLY MET'MAP TEAM :

Programmation & Développement : Alexandra Zaïnal
Sur une idée originale de : Baudouin d'Aumeries
Assistance à la programmation : Marc-Olivier Méhu
Soutien technique & logistique : Manuel Goepfert

Contact : metmap@orbifly.com




SOURCES & CREDITS :

   NOAA